Tropical Cyclones
[Index]
Main Index Home Page Stock Weather Photos Extreme Storms Discussion Storm News and Storm Chasing Reports Tropical Cyclones / Hurricanes / Typhoons Weather Data and Links Wild Fires / Bushfires Weather Observation Techniques Weather Picture Catalogue Tornado Pictures and Reports Stock Video Footage and DVDs for sale
Season 1959-1960 Tropical Cyclone 196006 Track Map
Season 1959-1960 Summaries: [BoM-AU] [JTWC-AU] [JTWC-SIO] [JTWC-SPAC] [JTWC-SH]
<<- Previous TC | JTWC 1959-1960 Season | Next TC ->>

click for intensity scale information  Lat/long Grid: Show Hide

 Date Labels: Show Hide

Joint Typhoon Warning Centre Cyclone Data

Name: 196006
Number: 376 / 6006

24 Dec 1959 12:00 UTC to 03 Jan 1960 00:00 UTC

    date/time    lat    long     hPa   cat  kts
1959-12-24 12   12.4   133.4                              
1959-12-24 18   12.3   133.6                              
1959-12-25 00   12.4   134.5                              
1959-12-25 06   12.6   136.2                              
1959-12-25 12   12.8   138.0                              
1959-12-25 18   13.0   139.5                              
1959-12-26 00   13.3   141.0                              
1959-12-26 06   13.7   142.2                              
1959-12-26 12   14.2   143.0                              
1959-12-26 18   14.8   142.7                              
1959-12-27 00   15.3   142.6                              
1959-12-27 06   15.1   143.6                              
1959-12-27 12   14.8   144.7                              
1959-12-27 18   15.1   145.7                              
1959-12-28 00   15.5   146.6                              
1959-12-28 06   15.8   147.5                              
1959-12-28 12   16.2   148.2                              
1959-12-28 18   16.6   148.8                              
1959-12-29 00   17.0   149.3                              
1959-12-29 06   17.4   149.9                              
1959-12-29 12   17.7   150.6                              
1959-12-29 18   17.9   151.3                              
1959-12-30 00   18.0   152.0                              
1959-12-30 06   18.1   153.0                              
1959-12-30 12   18.2   154.0                              
1959-12-30 18   18.3   155.0                              
1959-12-31 00   18.1   156.1                              
1959-12-31 06   17.4   157.9                              
1959-12-31 12   16.5   160.0                              
1959-12-31 18   15.7   162.1                              
1960-01-01 00   15.2   164.2                              
1960-01-01 06   15.7   166.8                              
1960-01-01 12   17.0   169.5                              
1960-01-01 18   18.4   171.6                              
1960-01-02 00   19.8   173.2                              
1960-01-02 06   21.1   174.4                              
1960-01-02 12   22.5   175.6                              
1960-01-02 18   23.8   176.7                              
1960-01-03 00   25.2   177.8                              
Winds are 1-min average.

Tropical cyclone tracks developed by Michael Bath using data from the Joint Typhoon Warning Centre Best Tracks and Google Maps.


[Australian Severe Weather index] [Copyright Notice] [Email Contacts] [Search This Site] [Privacy Policy]
Document: tropical_cyclone_196006.htm Updated: 18 September 2016